createdAt,value
2019-03-18T00:04:07.440Z,2.47
2019-03-18T00:09:10.846Z,5.13
2019-03-18T00:14:14.516Z,2.50
2019-03-18T00:19:18.239Z,2.80
2019-03-18T00:24:21.631Z,2.90
2019-03-18T00:29:25.386Z,3.20
2019-03-18T00:34:29.088Z,3.10
2019-03-18T00:39:32.409Z,2.90
2019-03-18T00:44:35.481Z,5.47
2019-03-18T00:49:38.874Z,3.43
2019-03-18T00:54:42.542Z,3.53
2019-03-18T00:59:45.869Z,3.57
2019-03-18T01:04:49.258Z,4.93
2019-03-18T01:09:52.722Z,3.47
2019-03-18T01:14:56.405Z,3.40
2019-03-18T01:19:59.842Z,4.20
2019-03-18T01:25:03.646Z,5.67
2019-03-18T01:30:09.715Z,3.20
2019-03-18T01:35:12.777Z,3.50
2019-03-18T01:40:16.178Z,3.70
2019-03-18T01:45:19.871Z,6.43
2019-03-18T01:50:22.935Z,3.83
2019-03-18T01:55:26.298Z,6.13
2019-03-18T02:00:29.764Z,7.37
2019-03-18T02:05:32.863Z,5.80
2019-03-18T02:10:35.933Z,5.30
2019-03-18T02:15:39.369Z,7.73
2019-03-18T02:20:42.995Z,3.73
2019-03-18T02:25:46.393Z,4.93
2019-03-18T02:30:49.797Z,5.40
2019-03-18T02:35:53.503Z,5.17
2019-03-18T02:40:57.228Z,5.77
2019-03-18T02:46:10.236Z,5.20
2019-03-18T02:51:05.786Z,4.03
2019-03-18T02:56:09.132Z,5.53
2019-03-18T03:01:12.221Z,5.67
2019-03-18T03:06:15.669Z,5.27
2019-03-18T03:11:19.350Z,8.33
2019-03-18T03:16:27.106Z,5.60
2019-03-18T03:21:27.534Z,3.67
2019-03-18T03:26:30.926Z,4.40
2019-03-18T03:31:34.364Z,3.93
2019-03-18T03:36:37.431Z,5.10
2019-03-18T03:41:41.093Z,6.50
2019-03-18T03:46:44.794Z,4.43
2019-03-18T03:51:47.890Z,4.70
2019-03-18T03:56:51.032Z,4.23
2019-03-18T04:01:54.323Z,4.00
2019-03-18T04:06:57.780Z,3.00
2019-03-18T04:12:01.162Z,4.80
2019-03-18T04:17:04.242Z,3.57
2019-03-18T04:22:07.632Z,5.77
2019-03-18T04:27:11.300Z,5.03
2019-03-18T04:32:14.368Z,3.83
2019-03-18T04:37:17.814Z,6.40
2019-03-18T04:42:30.519Z,5.20
2019-03-18T04:47:33.994Z,3.87
2019-03-18T04:52:37.491Z,5.73
2019-03-18T04:57:40.832Z,5.83
2019-03-18T05:02:44.229Z,4.57
2019-03-18T05:07:47.630Z,5.13
2019-03-18T05:12:50.953Z,5.33
2019-03-18T05:17:54.355Z,5.37
2019-03-18T05:22:58.079Z,5.53
2019-03-18T05:28:01.527Z,4.70
2019-03-18T05:33:04.925Z,4.23
2019-03-18T05:38:08.626Z,5.53
2019-03-18T05:43:12.347Z,5.60
2019-03-18T05:48:15.422Z,5.37
2019-03-18T05:53:19.084Z,9.23
2019-03-18T05:58:22.482Z,7.83
2019-03-18T06:03:26.217Z,7.23
2019-03-18T06:08:29.953Z,6.63
2019-03-18T06:13:33.329Z,5.87
2019-03-18T06:18:36.726Z,6.25
2019-03-18T06:23:40.127Z,9.43
2019-03-18T06:28:43.798Z,8.07
2019-03-18T06:33:47.243Z,10.87
2019-03-18T06:38:50.649Z,11.20
2019-03-18T06:43:54.050Z,6.60
2019-03-18T06:48:57.470Z,10.23
2019-03-18T06:54:00.788Z,8.47
2019-03-18T06:59:04.179Z,9.70
2019-03-18T07:04:07.492Z,7.10
2019-03-18T07:09:10.563Z,9.47
2019-03-18T07:14:13.968Z,7.07
2019-03-18T07:19:17.281Z,9.20
2019-03-18T07:24:20.595Z,9.93
2019-03-18T07:29:23.906Z,8.73
2019-03-18T07:34:26.991Z,7.83
2019-03-18T07:39:30.311Z,7.73
2019-03-18T07:44:33.620Z,9.83
2019-03-18T07:49:37.031Z,10.90
2019-03-18T07:54:40.102Z,8.13
2019-03-18T07:59:43.412Z,7.93
2019-03-18T08:04:46.727Z,8.33
2019-03-18T08:09:50.039Z,11.30
2019-03-18T08:14:53.684Z,7.53
2019-03-18T08:19:56.767Z,11.67
2019-03-18T08:25:00.335Z,9.93
2019-03-18T08:30:06.984Z,8.10
2019-03-18T08:35:10.382Z,12.20
2019-03-18T08:40:13.458Z,9.67
2019-03-18T08:45:16.679Z,10.47
2019-03-18T08:50:20.327Z,7.77
2019-03-18T08:55:23.983Z,11.33
2019-03-18T09:00:27.306Z,6.40
2019-03-18T09:05:30.622Z,8.57
2019-03-18T09:10:35.832Z,11.33
2019-03-18T09:15:39.564Z,6.17
2019-03-18T09:20:43.203Z,8.17
2019-03-18T09:25:46.605Z,6.20
2019-03-18T09:30:49.680Z,6.23
2019-03-18T09:35:53.433Z,5.77
2019-03-18T09:40:57.161Z,9.03
2019-03-18T09:46:00.558Z,6.90
2019-03-18T09:51:03.963Z,6.23
2019-03-18T09:56:07.704Z,7.30
2019-03-18T10:01:11.424Z,10.37
2019-03-18T10:06:14.502Z,5.83
2019-03-18T10:11:17.966Z,5.00
2019-03-18T10:16:21.796Z,7.60
2019-03-18T10:21:25.208Z,6.73
2019-03-18T10:26:28.618Z,6.10
2019-03-18T10:31:32.019Z,5.07
2019-03-18T10:36:35.138Z,5.33
2019-03-18T10:41:38.854Z,5.20
2019-03-18T10:46:42.483Z,3.00
2019-03-18T10:51:48.176Z,3.73
2019-03-18T10:56:51.595Z,6.67
2019-03-18T11:01:55.731Z,5.70
2019-03-18T11:06:58.807Z,5.77
2019-03-18T11:12:02.229Z,3.03
2019-03-18T11:17:05.292Z,4.70
2019-03-18T11:22:08.698Z,4.67
2019-03-18T11:27:12.017Z,4.87
2019-03-18T11:32:15.090Z,2.63
2019-03-18T11:37:18.197Z,5.43
2019-03-18T11:42:21.248Z,6.07
2019-03-18T11:47:24.375Z,4.90
2019-03-18T11:52:27.789Z,3.53
2019-03-18T11:57:30.860Z,5.43
2019-03-18T12:02:34.264Z,5.93
2019-03-18T12:07:37.571Z,4.93
2019-03-18T12:12:40.655Z,7.63
2019-03-18T12:17:44.034Z,7.57
2019-03-18T12:22:47.793Z,8.57
2019-03-18T12:27:51.427Z,8.20
2019-03-18T12:32:54.830Z,6.25
2019-03-18T12:37:58.135Z,6.90
2019-03-18T12:43:01.538Z,5.23
2019-03-18T12:48:04.939Z,6.80
2019-03-18T12:53:08.014Z,7.30
2019-03-18T12:58:11.333Z,8.33
2019-03-18T13:03:14.744Z,6.13
2019-03-18T13:08:18.499Z,6.50
2019-03-18T13:13:21.847Z,5.43
2019-03-18T13:18:25.479Z,4.47
2019-03-18T13:23:28.811Z,6.73
2019-03-18T13:28:31.966Z,7.10
2019-03-18T13:33:35.443Z,4.57
2019-03-18T13:38:39.067Z,6.23
2019-03-18T13:43:42.471Z,4.10
2019-03-18T13:48:45.543Z,5.23
2019-03-18T13:53:49.605Z,3.60
2019-03-18T13:58:52.934Z,4.53
2019-03-18T14:03:56.585Z,2.60
2019-03-18T14:09:00.228Z,5.83
2019-03-18T14:14:03.613Z,6.80
2019-03-18T14:19:06.923Z,6.50
2019-03-18T14:24:10.322Z,5.03
2019-03-18T14:29:13.628Z,7.10
2019-03-18T14:34:16.949Z,8.50
2019-03-18T14:39:20.284Z,8.80
2019-03-18T14:44:23.382Z,4.77
2019-03-18T14:49:26.800Z,6.53
2019-03-18T14:54:29.858Z,4.80
2019-03-18T14:59:32.922Z,4.63
2019-03-18T15:04:36.011Z,4.33
2019-03-18T15:09:39.328Z,4.77
2019-03-18T15:14:42.634Z,6.40
2019-03-18T15:19:46.050Z,7.20
2019-03-18T15:24:49.359Z,6.07
2019-03-18T15:29:53.003Z,5.93
2019-03-18T15:34:56.642Z,6.30
2019-03-18T15:40:00.394Z,4.63
2019-03-18T15:45:04.961Z,6.13
2019-03-18T15:50:09.558Z,5.67
2019-03-18T15:55:12.902Z,4.00
2019-03-18T16:00:18.795Z,4.47
2019-03-18T16:05:21.869Z,4.70
2019-03-18T16:10:24.964Z,8.97
2019-03-18T16:15:28.604Z,3.30
2019-03-18T16:20:31.687Z,4.43
2019-03-18T16:25:35.095Z,6.70
2019-03-18T16:30:43.041Z,6.10
2019-03-18T16:35:46.662Z,7.63
2019-03-18T16:40:50.323Z,9.13
2019-03-18T16:45:53.638Z,4.77
2019-03-18T16:50:56.963Z,6.67
2019-03-18T16:56:00.354Z,4.83
2019-03-18T17:01:03.431Z,6.93
2019-03-18T17:06:06.494Z,5.53
2019-03-18T17:11:10.141Z,5.97
2019-03-18T17:16:13.910Z,4.90
2019-03-18T17:21:16.985Z,6.50
2019-03-18T17:26:20.164Z,5.07
2019-03-18T17:31:23.586Z,4.97
2019-03-18T17:36:26.670Z,9.07
2019-03-18T17:41:29.999Z,6.17
2019-03-18T17:46:33.413Z,8.60
2019-03-18T17:51:36.479Z,4.93
2019-03-18T17:56:39.879Z,4.97
2019-03-18T18:01:43.033Z,6.10
2019-03-18T18:06:46.663Z,5.70
2019-03-18T18:11:50.076Z,4.73
2019-03-18T18:16:53.149Z,6.13
2019-03-18T18:21:57.530Z,5.83
2019-03-18T18:27:00.616Z,5.20
2019-03-18T18:32:03.678Z,5.03
2019-03-18T18:37:07.075Z,4.97
2019-03-18T18:42:10.457Z,7.70
2019-03-18T18:47:13.866Z,7.80
2019-03-18T18:52:17.603Z,9.50
2019-03-18T18:57:21.017Z,7.67
2019-03-18T19:02:24.098Z,9.77
2019-03-18T19:07:27.515Z,10.97
2019-03-18T19:12:30.659Z,8.70
2019-03-18T19:17:34.059Z,8.00
2019-03-18T19:22:37.126Z,9.33
2019-03-18T19:27:40.198Z,8.57
2019-03-18T19:32:43.888Z,9.30
2019-03-18T19:37:47.286Z,7.83
2019-03-18T19:42:50.703Z,8.80
2019-03-18T19:47:53.806Z,11.57
2019-03-18T19:52:57.277Z,9.63
2019-03-18T19:58:00.360Z,11.80
2019-03-18T20:03:03.448Z,10.03
2019-03-18T20:08:06.859Z,9.80
2019-03-18T20:13:09.944Z,8.87
2019-03-18T20:18:13.292Z,13.83
2019-03-18T20:23:16.370Z,13.87
2019-03-18T20:28:19.462Z,8.03
2019-03-18T20:33:23.118Z,12.13
2019-03-18T20:38:26.835Z,12.90
2019-03-18T20:43:30.334Z,11.20
2019-03-18T20:48:33.722Z,9.33
2019-03-18T20:53:37.144Z,12.23
2019-03-18T20:58:40.581Z,11.97
2019-03-18T21:03:44.323Z,10.03
2019-03-18T21:08:48.040Z,14.60
2019-03-18T21:13:57.037Z,13.93
2019-03-18T21:18:56.816Z,12.30
2019-03-18T21:23:59.910Z,10.55
2019-03-18T21:29:03.306Z,9.60
2019-03-18T21:34:06.711Z,11.10
2019-03-18T21:39:09.900Z,12.17
2019-03-18T21:44:13.223Z,10.63
2019-03-18T21:49:16.298Z,10.37
2019-03-18T21:54:19.707Z,9.40
2019-03-18T21:59:23.420Z,14.60
2019-03-18T22:04:26.502Z,13.87
2019-03-18T22:09:29.855Z,10.30
2019-03-18T22:14:33.570Z,16.10
2019-03-18T22:19:36.649Z,13.17
2019-03-18T22:24:45.253Z,13.27
2019-03-18T22:29:44.526Z,15.83
2019-03-18T22:34:47.931Z,9.13
2019-03-18T22:39:51.331Z,10.67
2019-03-18T22:44:54.731Z,11.23
2019-03-18T22:49:58.142Z,13.33
2019-03-18T22:55:01.311Z,10.20
2019-03-18T23:00:06.671Z,9.37
2019-03-18T23:05:13.452Z,10.63
2019-03-18T23:10:17.164Z,11.67
2019-03-18T23:15:20.237Z,10.43
2019-03-18T23:20:23.898Z,10.13
2019-03-18T23:25:27.241Z,11.15
2019-03-18T23:30:30.315Z,14.20
2019-03-18T23:35:33.713Z,10.77
2019-03-18T23:40:37.459Z,10.90
2019-03-18T23:45:40.903Z,11.13
2019-03-18T23:50:44.292Z,8.90
2019-03-18T23:55:47.379Z,9.80
